createdAt,value
2022-09-18T00:00:00.838Z,10.37
2022-09-18T00:03:03.152Z,10.42
2022-09-18T00:06:07.456Z,10.46
2022-09-18T00:09:11.468Z,10.47
2022-09-18T00:12:14.016Z,10.47
2022-09-18T00:15:17.297Z,10.46
2022-09-18T00:18:20.543Z,10.49
2022-09-18T00:21:27.452Z,10.51
2022-09-18T00:24:30.571Z,10.55
2022-09-18T00:27:32.910Z,10.51
2022-09-18T00:30:35.511Z,10.53
2022-09-18T00:33:40.003Z,10.53
2022-09-18T00:36:42.559Z,10.55
2022-09-18T00:39:44.864Z,10.56
2022-09-18T00:42:47.368Z,10.55
2022-09-18T00:45:53.769Z,10.54
2022-09-18T00:49:35.223Z,10.59
2022-09-18T00:52:42.363Z,10.62
2022-09-18T00:55:44.972Z,10.62
2022-09-18T00:58:47.390Z,10.59
2022-09-18T01:01:49.962Z,10.60
2022-09-18T01:04:52.402Z,10.60
2022-09-18T01:08:07.719Z,10.59
2022-09-18T01:11:19.099Z,10.56
2022-09-18T01:14:21.585Z,10.56
2022-09-18T01:17:44.262Z,10.53
2022-09-18T01:20:55.086Z,10.51
2022-09-18T01:24:00.175Z,10.47
2022-09-18T01:27:05.572Z,10.47
2022-09-18T01:30:09.207Z,10.39
2022-09-18T01:33:32.032Z,10.34
2022-09-18T01:36:36.459Z,10.36
2022-09-18T01:39:43.385Z,10.27
2022-09-18T01:42:47.954Z,10.17
2022-09-18T01:45:53.312Z,10.12
2022-09-18T01:48:58.435Z,10.02
2022-09-18T01:52:15.643Z,9.98
2022-09-18T01:55:20.973Z,9.96
2022-09-18T01:58:24.961Z,9.90
2022-09-18T02:01:29.793Z,9.87
2022-09-18T02:04:35.241Z,9.83
2022-09-18T02:07:43.917Z,9.84
2022-09-18T02:10:54.200Z,9.86
2022-09-18T02:14:05.688Z,9.85
2022-09-18T02:17:13.546Z,9.87
2022-09-18T02:20:20.648Z,9.85
2022-09-18T02:23:23.589Z,9.85
2022-09-18T02:26:26.920Z,9.80
2022-09-18T02:29:30.146Z,9.74
2022-09-18T02:32:32.661Z,9.71
2022-09-18T02:35:43.519Z,9.67
2022-09-18T02:38:55.428Z,9.58
2022-09-18T02:42:00.978Z,9.55
2022-09-18T02:45:06.056Z,9.54
2022-09-18T02:48:26.830Z,9.52
2022-09-18T02:52:01.935Z,9.50
2022-09-18T02:55:11.733Z,9.44
2022-09-18T02:58:21.003Z,9.42
2022-09-18T03:01:25.634Z,9.37
2022-09-18T03:04:28.140Z,9.35
2022-09-18T03:07:31.591Z,9.32
2022-09-18T03:10:34.846Z,9.28
2022-09-18T03:13:37.937Z,9.24
2022-09-18T03:16:40.332Z,9.18
2022-09-18T03:19:44.714Z,9.15
2022-09-18T03:22:47.965Z,9.10
2022-09-18T03:25:50.922Z,9.09
2022-09-18T03:28:53.837Z,9.06
2022-09-18T03:31:56.736Z,9.07
2022-09-18T03:34:59.170Z,9.04
2022-09-18T03:38:02.649Z,9.01
2022-09-18T03:41:05.510Z,9.01
2022-09-18T03:44:08.552Z,8.96
2022-09-18T03:47:14.831Z,8.97
2022-09-18T03:50:17.598Z,8.98
2022-09-18T03:53:20.008Z,8.95
2022-09-18T03:56:22.645Z,8.90
2022-09-18T03:59:26.010Z,8.85
2022-09-18T04:02:28.883Z,8.81
2022-09-18T04:05:49.050Z,8.79
2022-09-18T04:08:54.407Z,8.78
2022-09-18T04:11:58.666Z,8.80
2022-09-18T04:15:00.993Z,8.81
2022-09-18T04:18:05.200Z,8.77
2022-09-18T04:21:07.730Z,8.75
2022-09-18T04:24:10.520Z,8.75
2022-09-18T04:27:12.821Z,8.76
2022-09-18T04:30:16.123Z,8.74
2022-09-18T04:33:18.535Z,8.72
2022-09-18T04:36:22.890Z,8.72
2022-09-18T04:39:25.505Z,8.70
2022-09-18T04:42:28.075Z,8.70
2022-09-18T04:45:30.359Z,8.71
2022-09-18T04:48:33.211Z,8.75
2022-09-18T04:51:36.480Z,8.79
2022-09-18T04:54:39.088Z,8.94
2022-09-18T04:57:41.686Z,9.03
2022-09-18T05:00:50.636Z,9.18
2022-09-18T05:03:53.889Z,9.31
2022-09-18T05:06:57.324Z,9.27
2022-09-18T05:10:00.563Z,9.24
2022-09-18T05:13:03.275Z,9.25
2022-09-18T05:16:06.537Z,9.23
2022-09-18T05:19:09.551Z,9.36
2022-09-18T05:22:11.775Z,9.43
2022-09-18T05:25:15.018Z,9.50
2022-09-18T05:28:19.232Z,9.54
2022-09-18T05:31:22.793Z,9.62
2022-09-18T05:34:25.625Z,9.62
2022-09-18T05:37:28.230Z,9.58
2022-09-18T05:40:33.326Z,9.55
2022-09-18T05:43:35.948Z,9.70
2022-09-18T05:46:42.391Z,10.53
2022-09-18T05:49:45.158Z,12.15
2022-09-18T05:52:47.665Z,16.26
2022-09-18T05:55:50.475Z,19.74
2022-09-18T05:58:54.386Z,21.30
2022-09-18T06:01:57.356Z,22.65
2022-09-18T06:05:00.241Z,24.01
2022-09-18T06:08:04.619Z,24.60
2022-09-18T06:11:07.157Z,26.31
2022-09-18T06:14:09.484Z,27.57
2022-09-18T06:17:12.194Z,25.73
2022-09-18T06:20:16.235Z,25.15
2022-09-18T06:23:20.002Z,20.95
2022-09-18T06:26:24.168Z,18.91
2022-09-18T06:29:27.105Z,16.87
2022-09-18T06:32:29.704Z,15.71
2022-09-18T06:35:33.118Z,15.91
2022-09-18T06:38:36.007Z,15.91
2022-09-18T06:41:38.695Z,15.65
2022-09-18T06:44:41.024Z,14.95
2022-09-18T06:47:43.825Z,13.88
2022-09-18T06:50:57.483Z,13.25
2022-09-18T06:54:00.708Z,13.10
2022-09-18T06:57:03.005Z,12.63
2022-09-18T07:00:06.245Z,12.48
2022-09-18T07:03:10.338Z,12.84
2022-09-18T07:06:17.998Z,12.78
2022-09-18T07:09:21.336Z,12.75
2022-09-18T07:12:24.751Z,12.84
2022-09-18T07:15:27.675Z,13.18
2022-09-18T07:18:30.271Z,13.62
2022-09-18T07:21:32.686Z,14.30
2022-09-18T07:24:36.762Z,14.45
2022-09-18T07:27:39.477Z,14.02
2022-09-18T07:30:42.453Z,13.60
2022-09-18T07:33:45.036Z,13.71
2022-09-18T07:36:50.887Z,14.12
2022-09-18T07:39:53.637Z,13.99
2022-09-18T07:43:00.663Z,13.91
2022-09-18T07:46:03.022Z,13.87
2022-09-18T07:49:05.948Z,14.40
2022-09-18T07:52:08.454Z,15.22
2022-09-18T07:55:12.452Z,14.74
2022-09-18T07:58:15.000Z,14.48
2022-09-18T08:01:20.194Z,13.81
2022-09-18T08:04:23.363Z,13.70
2022-09-18T08:07:27.258Z,13.74
2022-09-18T08:10:30.233Z,13.84
2022-09-18T08:13:33.239Z,14.02
2022-09-18T08:16:36.099Z,13.73
2022-09-18T08:19:40.122Z,13.33
2022-09-18T08:22:43.364Z,13.19
2022-09-18T08:25:47.613Z,13.39
2022-09-18T08:28:50.362Z,13.42
2022-09-18T08:31:52.717Z,13.57
2022-09-18T08:34:56.617Z,13.67
2022-09-18T08:37:59.309Z,14.01
2022-09-18T08:41:22.415Z,14.31
2022-09-18T08:44:29.429Z,13.93
2022-09-18T08:47:35.394Z,13.60
2022-09-18T08:50:41.412Z,13.85
2022-09-18T08:53:46.897Z,14.23
2022-09-18T08:56:51.279Z,14.19
2022-09-18T09:00:00.171Z,13.79
2022-09-18T09:03:02.534Z,13.39
2022-09-18T09:06:20.601Z,13.28
2022-09-18T09:09:23.179Z,13.55
2022-09-18T09:12:41.141Z,13.86
2022-09-18T09:15:43.500Z,13.98
2022-09-18T09:18:46.410Z,13.86
2022-09-18T09:21:52.455Z,13.66
2022-09-18T09:25:01.953Z,13.85
2022-09-18T09:28:16.325Z,13.91
2022-09-18T09:31:23.315Z,14.12
2022-09-18T09:34:35.604Z,14.19
2022-09-18T09:37:41.596Z,14.32
2022-09-18T09:40:46.732Z,14.61
2022-09-18T09:43:55.008Z,14.34
2022-09-18T09:47:00.448Z,13.97
2022-09-18T09:50:10.206Z,13.65
2022-09-18T09:53:13.078Z,13.62
2022-09-18T09:56:28.903Z,13.89
2022-09-18T09:59:50.212Z,14.35
2022-09-18T10:03:03.735Z,13.88
2022-09-18T10:06:25.474Z,13.56
2022-09-18T10:09:40.397Z,13.60
2022-09-18T10:12:52.012Z,13.70
2022-09-18T10:16:14.814Z,14.05
2022-09-18T10:19:19.169Z,14.36
2022-09-18T10:22:23.223Z,14.13
2022-09-18T10:25:42.084Z,14.07
2022-09-18T10:28:45.398Z,14.17
2022-09-18T10:31:52.548Z,14.44
2022-09-18T10:34:55.283Z,14.67
2022-09-18T10:37:58.701Z,14.68
2022-09-18T10:41:11.326Z,14.68
2022-09-18T10:44:14.582Z,15.08
2022-09-18T10:47:18.348Z,14.89
2022-09-18T10:50:21.103Z,14.66
2022-09-18T10:53:31.239Z,15.00
2022-09-18T10:56:35.985Z,15.00
2022-09-18T10:59:38.595Z,15.20
2022-09-18T11:02:50.168Z,15.60
2022-09-18T11:05:55.303Z,15.36
2022-09-18T11:09:00.268Z,14.53
2022-09-18T11:12:02.812Z,14.53
2022-09-18T11:15:07.873Z,14.44
2022-09-18T11:18:15.852Z,14.83
2022-09-18T11:21:19.309Z,14.94
2022-09-18T11:24:25.164Z,15.49
2022-09-18T11:27:43.660Z,15.91
2022-09-18T11:30:54.976Z,16.15
2022-09-18T11:33:59.931Z,15.81
2022-09-18T11:37:11.714Z,15.51
2022-09-18T11:40:20.691Z,15.38
2022-09-18T11:43:28.586Z,15.77
2022-09-18T11:46:46.342Z,15.90
2022-09-18T11:50:00.844Z,16.25
2022-09-18T11:53:24.150Z,16.45
2022-09-18T11:56:47.668Z,17.00
2022-09-18T11:59:54.971Z,16.84
2022-09-18T12:03:02.704Z,16.41
2022-09-18T12:06:32.754Z,16.53
2022-09-18T12:09:39.737Z,16.51
2022-09-18T12:13:01.182Z,16.25
2022-09-18T12:16:17.076Z,16.44
2022-09-18T12:19:30.371Z,16.49
2022-09-18T12:22:50.999Z,16.65
2022-09-18T12:25:59.692Z,16.42
2022-09-18T12:29:37.007Z,15.93
2022-09-18T12:32:51.941Z,15.64
2022-09-18T12:36:06.490Z,15.27
2022-09-18T12:39:28.546Z,14.93
2022-09-18T12:42:42.692Z,14.81
2022-09-18T12:45:45.203Z,14.89
2022-09-18T12:49:05.283Z,15.63
2022-09-18T12:52:20.024Z,16.42
2022-09-18T12:55:30.516Z,16.83
2022-09-18T12:58:33.058Z,17.17
2022-09-18T13:01:45.244Z,17.15
2022-09-18T13:04:57.490Z,16.96
2022-09-18T13:08:05.936Z,16.67
2022-09-18T13:11:12.305Z,16.59
2022-09-18T13:14:18.938Z,16.65
2022-09-18T13:17:33.838Z,16.34
2022-09-18T13:20:41.111Z,16.26
2022-09-18T13:23:45.115Z,16.01
2022-09-18T13:26:48.904Z,15.90
2022-09-18T13:29:51.733Z,16.01
2022-09-18T13:32:54.711Z,16.20
2022-09-18T13:35:57.784Z,16.34
2022-09-18T13:39:02.681Z,16.45
2022-09-18T13:42:05.539Z,16.30
2022-09-18T13:45:19.548Z,16.17
2022-09-18T13:48:30.566Z,16.22
2022-09-18T13:51:38.324Z,16.10
2022-09-18T13:54:59.308Z,15.86
2022-09-18T13:58:20.377Z,16.02
2022-09-18T14:01:41.673Z,15.43
2022-09-18T14:04:46.833Z,14.84
2022-09-18T14:07:51.828Z,14.73
2022-09-18T14:11:16.271Z,14.69
2022-09-18T14:14:21.535Z,14.76
2022-09-18T14:17:25.624Z,14.60
2022-09-18T14:20:30.209Z,14.76
2022-09-18T14:23:35.962Z,14.80
2022-09-18T14:26:38.975Z,14.83
2022-09-18T14:29:42.262Z,15.05
2022-09-18T14:33:01.299Z,15.44
2022-09-18T14:36:05.880Z,15.55
2022-09-18T14:39:22.105Z,15.42
2022-09-18T14:42:33.322Z,15.16
2022-09-18T14:45:35.792Z,15.23
2022-09-18T14:48:39.002Z,15.19
2022-09-18T14:52:02.765Z,15.25
2022-09-18T14:55:10.748Z,15.22
2022-09-18T14:58:15.575Z,14.97
2022-09-18T15:01:21.539Z,14.68
2022-09-18T15:04:25.963Z,14.59
2022-09-18T15:07:28.954Z,14.38
2022-09-18T15:10:34.082Z,14.15
2022-09-18T15:13:37.888Z,14.15
2022-09-18T15:16:40.176Z,14.02
2022-09-18T15:19:54.196Z,13.88
2022-09-18T15:22:57.131Z,13.73
2022-09-18T15:26:02.499Z,13.55
2022-09-18T15:29:06.456Z,13.39
2022-09-18T15:32:11.272Z,13.28
2022-09-18T15:35:18.951Z,13.29
2022-09-18T15:38:24.038Z,13.32
2022-09-18T15:41:32.190Z,13.29
2022-09-18T15:44:34.678Z,13.25
2022-09-18T15:47:39.255Z,13.26
2022-09-18T15:50:43.119Z,13.40
2022-09-18T15:54:04.026Z,13.50
2022-09-18T15:57:13.590Z,13.54
2022-09-18T16:00:20.847Z,13.63
2022-09-18T16:03:25.500Z,13.57
2022-09-18T16:06:29.118Z,13.46
2022-09-18T16:09:37.008Z,13.33
2022-09-18T16:12:41.923Z,13.26
2022-09-18T16:15:47.561Z,13.13
2022-09-18T16:18:52.464Z,13.05
2022-09-18T16:21:55.097Z,13.06
2022-09-18T16:24:58.002Z,12.98
2022-09-18T16:28:14.877Z,12.91
2022-09-18T16:31:18.927Z,12.86
2022-09-18T16:34:28.778Z,12.76
2022-09-18T16:37:31.192Z,12.69
2022-09-18T16:40:34.648Z,12.62
2022-09-18T16:43:36.985Z,12.51
2022-09-18T16:46:42.636Z,12.35
2022-09-18T16:49:46.738Z,12.33
2022-09-18T16:52:49.295Z,12.28
2022-09-18T16:55:52.842Z,12.15
2022-09-18T16:58:56.643Z,12.02
2022-09-18T17:02:04.204Z,11.88
2022-09-18T17:05:07.469Z,11.79
2022-09-18T17:08:10.256Z,11.73
2022-09-18T17:11:12.965Z,11.64
2022-09-18T17:14:15.513Z,11.56
2022-09-18T17:17:18.213Z,11.46
2022-09-18T17:20:21.135Z,11.62
2022-09-18T17:23:23.831Z,11.47
2022-09-18T17:26:28.500Z,11.41
2022-09-18T17:29:31.212Z,11.26
2022-09-18T17:32:33.556Z,11.18
2022-09-18T17:35:36.450Z,11.17
2022-09-18T17:38:39.692Z,11.25
2022-09-18T17:41:42.634Z,11.24
2022-09-18T17:44:44.908Z,11.20
2022-09-18T17:47:50.513Z,11.13
2022-09-18T17:50:58.242Z,11.21
2022-09-18T17:54:02.933Z,11.09
2022-09-18T17:57:14.420Z,10.96
2022-09-18T18:00:19.153Z,10.84
2022-09-18T18:03:22.723Z,10.76
2022-09-18T18:06:26.526Z,10.65
2022-09-18T18:09:29.403Z,10.58
2022-09-18T18:12:32.152Z,10.51
2022-09-18T18:15:34.653Z,10.45
2022-09-18T18:18:37.303Z,10.45
2022-09-18T18:21:41.255Z,10.40
2022-09-18T18:24:43.569Z,10.53
2022-09-18T18:27:46.126Z,10.56
2022-09-18T18:31:06.040Z,10.56
2022-09-18T18:34:10.757Z,10.56
2022-09-18T18:37:13.206Z,10.58
2022-09-18T18:40:17.743Z,10.62
2022-09-18T18:43:23.088Z,10.64
2022-09-18T18:46:27.874Z,10.66
2022-09-18T18:49:31.156Z,10.76
2022-09-18T18:52:33.756Z,10.70
2022-09-18T18:55:36.508Z,10.63
2022-09-18T18:58:39.599Z,10.59
2022-09-18T19:01:43.200Z,10.67
2022-09-18T19:04:45.951Z,10.65
2022-09-18T19:07:49.402Z,10.78
2022-09-18T19:11:00.978Z,10.91
2022-09-18T19:14:03.372Z,10.82
2022-09-18T19:17:05.947Z,10.69
2022-09-18T19:20:08.680Z,10.63
2022-09-18T19:23:13.279Z,10.55
2022-09-18T19:26:15.808Z,10.52
2022-09-18T19:29:19.536Z,10.70
2022-09-18T19:32:22.178Z,10.64
2022-09-18T19:35:24.830Z,10.63
2022-09-18T19:38:27.275Z,10.63
2022-09-18T19:41:38.854Z,10.71
2022-09-18T19:44:44.358Z,10.65
2022-09-18T19:47:48.652Z,10.65
2022-09-18T19:50:55.420Z,10.77
2022-09-18T19:53:57.967Z,10.86
2022-09-18T19:57:00.242Z,11.02
2022-09-18T20:00:03.337Z,11.19
2022-09-18T20:03:15.347Z,11.30
2022-09-18T20:06:18.136Z,11.38
2022-09-18T20:09:20.635Z,11.48
2022-09-18T20:12:23.341Z,11.56
2022-09-18T20:15:26.063Z,11.52
2022-09-18T20:18:30.101Z,11.52
2022-09-18T20:21:33.116Z,11.59
2022-09-18T20:24:35.586Z,11.52
2022-09-18T20:27:39.131Z,11.45
2022-09-18T20:30:43.513Z,11.44
2022-09-18T20:33:45.843Z,11.52
2022-09-18T20:36:49.572Z,11.42
2022-09-18T20:39:51.904Z,11.38
2022-09-18T20:42:55.539Z,11.35
2022-09-18T20:46:02.871Z,11.44
2022-09-18T20:49:07.864Z,11.41
2022-09-18T20:52:14.483Z,11.40
2022-09-18T20:55:17.418Z,11.38
2022-09-18T20:58:19.790Z,11.47
2022-09-18T21:01:27.593Z,11.48
2022-09-18T21:04:30.034Z,11.52
2022-09-18T21:07:32.679Z,11.60
2022-09-18T21:10:47.418Z,11.57
2022-09-18T21:14:00.804Z,11.64
2022-09-18T21:17:10.740Z,11.77
2022-09-18T21:20:15.178Z,11.73
2022-09-18T21:23:36.108Z,11.85
2022-09-18T21:26:42.846Z,11.85
2022-09-18T21:29:45.935Z,11.90
2022-09-18T21:32:51.610Z,11.98
2022-09-18T21:35:55.982Z,11.97
2022-09-18T21:38:59.071Z,11.96
2022-09-18T21:42:02.169Z,11.98
2022-09-18T21:45:04.850Z,12.07
2022-09-18T21:48:07.753Z,12.15
2022-09-18T21:51:14.458Z,12.14
2022-09-18T21:54:18.811Z,12.21
2022-09-18T21:57:22.242Z,12.27
2022-09-18T22:00:35.290Z,12.42
2022-09-18T22:03:37.920Z,12.47
2022-09-18T22:06:41.726Z,12.51
2022-09-18T22:09:45.052Z,12.48
2022-09-18T22:12:47.340Z,12.46
2022-09-18T22:15:52.794Z,12.54
2022-09-18T22:18:55.188Z,12.60
2022-09-18T22:22:17.552Z,12.55
2022-09-18T22:25:19.910Z,12.59
2022-09-18T22:28:24.922Z,12.66
2022-09-18T22:31:28.245Z,12.62
2022-09-18T22:34:32.604Z,12.52
2022-09-18T22:37:34.956Z,12.53
2022-09-18T22:40:39.728Z,12.49
2022-09-18T22:43:42.074Z,12.52
2022-09-18T22:46:45.449Z,12.58
2022-09-18T22:49:48.393Z,12.67
2022-09-18T22:52:50.992Z,12.68
2022-09-18T22:55:53.331Z,12.68
2022-09-18T22:58:56.477Z,12.69
2022-09-18T23:02:01.304Z,12.70
2022-09-18T23:05:04.098Z,12.60
2022-09-18T23:08:07.198Z,12.58
2022-09-18T23:11:13.956Z,12.54
2022-09-18T23:14:18.587Z,12.57
2022-09-18T23:17:22.871Z,12.62
2022-09-18T23:20:25.554Z,12.61
2022-09-18T23:23:32.286Z,12.64
2022-09-18T23:26:36.001Z,12.63
2022-09-18T23:29:39.267Z,12.64
2022-09-18T23:32:41.613Z,12.66
2022-09-18T23:35:44.119Z,12.68
2022-09-18T23:38:47.033Z,12.68
2022-09-18T23:41:50.279Z,12.63
2022-09-18T23:44:52.484Z,12.57
2022-09-18T23:47:54.978Z,12.54
2022-09-18T23:50:59.725Z,12.54
2022-09-18T23:54:05.639Z,12.48
2022-09-18T23:57:07.955Z,12.46
